createdAt,value
2017-10-20T00:00:59.378Z,100482.64
2017-10-20T00:03:27.034Z,100482.42
2017-10-20T00:05:54.694Z,100488.53
2017-10-20T00:08:22.290Z,100493.95
2017-10-20T00:10:49.931Z,100486.62
2017-10-20T00:13:17.526Z,100496.35
2017-10-20T00:15:45.146Z,100492.83
2017-10-20T00:18:12.815Z,100489.99
2017-10-20T00:20:40.446Z,100485.77
2017-10-20T00:23:08.034Z,100481.45
2017-10-20T00:25:35.704Z,100486.78
2017-10-20T00:28:03.294Z,100490.63
2017-10-20T00:30:30.935Z,100489.74
2017-10-20T00:32:58.545Z,100492.70
2017-10-20T00:35:26.186Z,100494.31
2017-10-20T00:37:53.785Z,100490.47
2017-10-20T00:40:21.375Z,100487.67
2017-10-20T00:42:49.011Z,100486.78
2017-10-20T00:45:16.619Z,100483.52
2017-10-20T00:47:45.451Z,100491.64
2017-10-20T00:50:13.036Z,100484.80
2017-10-20T00:52:40.683Z,100503.36
2017-10-20T00:55:08.266Z,100491.25
2017-10-20T00:57:35.891Z,100487.76
2017-10-20T01:00:03.482Z,100483.38
2017-10-20T01:02:31.120Z,100479.31
2017-10-20T01:04:58.752Z,100468.39
2017-10-20T01:07:26.505Z,100474.13
2017-10-20T01:09:54.100Z,100469.33
2017-10-20T01:12:21.727Z,100462.20
2017-10-20T01:14:49.342Z,100461.52
2017-10-20T01:17:16.934Z,100465.26
2017-10-20T01:19:44.611Z,100455.37
2017-10-20T01:22:12.231Z,100459.53
2017-10-20T01:24:39.860Z,100453.55
2017-10-20T01:27:07.486Z,100446.53
2017-10-20T01:29:35.119Z,100443.73
2017-10-20T01:32:02.723Z,100454.06
2017-10-20T01:34:30.365Z,100451.97
2017-10-20T01:36:57.947Z,100452.34
2017-10-20T01:39:25.575Z,100450.05
2017-10-20T01:41:53.179Z,100445.98
2017-10-20T01:44:21.443Z,100446.30
2017-10-20T01:46:49.035Z,100442.73
2017-10-20T01:49:16.626Z,100446.89
2017-10-20T01:51:44.257Z,100430.18
2017-10-20T01:54:11.847Z,100425.12
2017-10-20T01:56:39.458Z,100430.73
2017-10-20T01:59:07.036Z,100429.95
2017-10-20T02:01:34.657Z,100417.50
2017-10-20T02:04:02.248Z,100419.69
2017-10-20T02:06:29.871Z,100433.45
2017-10-20T02:08:57.474Z,100428.72
2017-10-20T02:11:25.148Z,100426.55
2017-10-20T02:13:52.847Z,100420.88
2017-10-20T02:16:20.471Z,100415.02
2017-10-20T02:18:48.070Z,100397.17
2017-10-20T02:21:15.660Z,100378.97
2017-10-20T02:23:43.290Z,100370.31
2017-10-20T02:26:10.972Z,100372.47
2017-10-20T02:28:38.586Z,100377.56
2017-10-20T02:31:06.216Z,100381.03
2017-10-20T02:33:33.819Z,100378.93
2017-10-20T02:36:01.447Z,100376.97
2017-10-20T02:38:29.034Z,100372.25
2017-10-20T02:40:56.672Z,100372.34
2017-10-20T02:43:24.264Z,100366.52
2017-10-20T02:45:51.888Z,100364.22
2017-10-20T02:48:19.495Z,100367.90
2017-10-20T02:50:47.139Z,100377.87
2017-10-20T02:53:16.262Z,100377.19
2017-10-20T02:55:43.936Z,100369.64
2017-10-20T02:58:11.531Z,100366.13
2017-10-20T03:00:39.181Z,100371.12
2017-10-20T03:03:06.794Z,100379.25
2017-10-20T03:05:34.424Z,100383.31
2017-10-20T03:08:02.050Z,100384.69
2017-10-20T03:10:29.721Z,100382.77
2017-10-20T03:12:57.343Z,100371.05
2017-10-20T03:15:24.979Z,100368.93
2017-10-20T03:17:52.581Z,100363.41
2017-10-20T03:20:20.203Z,100354.56
2017-10-20T03:22:47.797Z,100354.49
2017-10-20T03:25:15.651Z,100365.67
2017-10-20T03:27:44.211Z,100368.45
2017-10-20T03:30:11.884Z,100376.01
2017-10-20T03:32:39.517Z,100375.30
2017-10-20T03:35:07.107Z,100372.17
2017-10-20T03:37:34.731Z,100358.54
2017-10-20T03:40:02.384Z,100347.94
2017-10-20T03:42:30.012Z,100344.44
2017-10-20T03:44:57.714Z,100357.40
2017-10-20T03:47:25.342Z,100364.70
2017-10-20T03:49:52.954Z,100375.92
2017-10-20T03:52:21.068Z,100374.28
2017-10-20T03:54:49.421Z,100370.61
2017-10-20T03:57:18.019Z,100358.25
2017-10-20T03:59:45.610Z,100355.72
2017-10-20T04:02:13.255Z,100364.59
2017-10-20T04:04:40.944Z,100367.06
2017-10-20T04:07:08.555Z,100371.71
2017-10-20T04:09:36.291Z,100374.26
2017-10-20T04:12:03.886Z,100371.71
2017-10-20T04:14:31.544Z,100371.21
2017-10-20T04:16:59.121Z,100374.03
2017-10-20T04:19:27.990Z,100379.67
2017-10-20T04:21:55.691Z,100382.65
2017-10-20T04:24:23.320Z,100376.67
2017-10-20T04:26:50.917Z,100369.31
2017-10-20T04:29:18.547Z,100384.47
2017-10-20T04:31:46.143Z,100386.09
2017-10-20T04:34:13.766Z,100387.17
2017-10-20T04:36:41.359Z,100379.66
2017-10-20T04:39:08.995Z,100386.84
2017-10-20T04:41:36.583Z,100364.08
2017-10-20T04:44:04.205Z,100368.97
2017-10-20T04:46:31.803Z,100362.27
2017-10-20T04:48:59.493Z,100352.81
2017-10-20T04:51:27.090Z,100355.31
2017-10-20T04:53:54.739Z,100358.38
2017-10-20T04:56:22.348Z,100347.14
2017-10-20T04:58:49.995Z,100341.17
2017-10-20T05:01:17.584Z,100350.15
2017-10-20T05:03:45.690Z,100349.95
2017-10-20T05:06:15.143Z,100337.43
2017-10-20T05:08:42.734Z,100345.28
2017-10-20T05:11:10.361Z,100356.55
2017-10-20T05:13:37.954Z,100348.97
2017-10-20T05:16:05.571Z,100362.35
2017-10-20T05:18:33.174Z,100370.53
2017-10-20T05:21:00.852Z,100375.57
2017-10-20T05:23:28.447Z,100376.39
2017-10-20T05:25:56.093Z,100381.11
2017-10-20T05:28:23.702Z,100386.89
2017-10-20T05:30:51.293Z,100390.84
2017-10-20T05:33:18.943Z,100378.84
2017-10-20T05:35:46.545Z,100367.86
2017-10-20T05:38:14.173Z,100364.69
2017-10-20T05:40:41.781Z,100357.59
2017-10-20T05:43:09.417Z,100359.14
2017-10-20T05:45:37.040Z,100350.66
2017-10-20T05:48:04.712Z,100343.12
2017-10-20T05:50:32.311Z,100343.39
2017-10-20T05:52:59.942Z,100334.45
2017-10-20T05:55:27.575Z,100336.85
2017-10-20T05:57:55.212Z,100342.00
2017-10-20T06:00:22.811Z,100348.08
2017-10-20T06:02:50.446Z,100347.91
2017-10-20T06:05:18.049Z,100353.73
2017-10-20T06:07:45.676Z,100353.89
2017-10-20T06:10:13.278Z,100348.74
2017-10-20T06:12:40.910Z,100353.28
2017-10-20T06:15:08.565Z,100343.57
2017-10-20T06:17:40.912Z,100347.64
2017-10-20T06:20:08.543Z,100350.34
2017-10-20T06:22:36.142Z,100345.97
2017-10-20T06:25:03.776Z,100361.81
2017-10-20T06:27:31.386Z,100358.59
2017-10-20T06:29:59.015Z,100369.70
2017-10-20T06:32:26.688Z,100350.85
2017-10-20T06:34:54.364Z,100348.92
2017-10-20T06:37:21.967Z,100335.95
2017-10-20T06:39:49.638Z,100347.91
2017-10-20T06:42:17.343Z,100342.30
2017-10-20T06:44:44.966Z,100346.55
2017-10-20T06:47:12.571Z,100339.71
2017-10-20T06:49:40.207Z,100343.05
2017-10-20T06:52:07.823Z,100345.84
2017-10-20T06:54:36.055Z,100348.06
2017-10-20T06:57:03.662Z,100359.83
2017-10-20T06:59:31.287Z,100360.44
2017-10-20T07:01:59.172Z,100356.87
2017-10-20T07:04:26.791Z,100357.53
2017-10-20T07:06:54.415Z,100348.13
2017-10-20T07:09:22.536Z,100354.56
2017-10-20T07:11:50.119Z,100340.38
2017-10-20T07:14:17.847Z,100337.41
2017-10-20T07:16:45.418Z,100345.72
2017-10-20T07:19:14.594Z,100347.70
2017-10-20T07:21:42.175Z,100344.47
2017-10-20T07:24:09.830Z,100344.00
2017-10-20T07:26:37.451Z,100343.16
2017-10-20T07:29:05.066Z,100338.70
2017-10-20T07:31:32.667Z,100339.84
2017-10-20T07:34:00.278Z,100337.42
2017-10-20T07:36:27.907Z,100334.89
2017-10-20T07:38:55.509Z,100329.41
2017-10-20T07:41:23.162Z,100330.98
2017-10-20T07:43:51.841Z,100334.98
2017-10-20T07:46:19.459Z,100326.27
2017-10-20T07:48:47.063Z,100345.58
2017-10-20T07:51:14.699Z,100354.83
2017-10-20T07:53:42.967Z,100354.11
2017-10-20T07:56:10.604Z,100348.17
2017-10-20T07:58:38.257Z,100353.73
2017-10-20T08:01:05.897Z,100352.48
2017-10-20T08:03:33.484Z,100357.45
2017-10-20T08:06:01.179Z,100340.27
2017-10-20T08:08:28.815Z,100348.00
2017-10-20T08:10:56.438Z,100354.08
2017-10-20T08:13:24.080Z,100351.47
2017-10-20T08:15:51.687Z,100358.08
2017-10-20T08:18:19.334Z,100349.74
2017-10-20T08:20:47.035Z,100352.70
2017-10-20T08:23:14.711Z,100368.34
2017-10-20T08:25:42.336Z,100368.91
2017-10-20T08:28:09.949Z,100373.16
2017-10-20T08:30:37.662Z,100363.91
2017-10-20T08:33:05.295Z,100367.52
2017-10-20T08:35:32.883Z,100369.72
2017-10-20T08:38:00.516Z,100369.97
2017-10-20T08:40:28.364Z,100375.14
2017-10-20T08:42:55.979Z,100379.10
2017-10-20T08:45:23.558Z,100380.05
2017-10-20T08:47:51.190Z,100401.03
2017-10-20T08:50:18.826Z,100457.87
2017-10-20T08:52:46.474Z,100461.74
2017-10-20T08:55:14.082Z,100469.33
2017-10-20T08:57:41.743Z,100485.81
2017-10-20T09:00:10.315Z,100469.32
2017-10-20T09:02:38.034Z,100474.05
2017-10-20T09:05:05.638Z,100465.30
2017-10-20T09:07:34.159Z,100470.63
2017-10-20T09:10:01.759Z,100475.20
2017-10-20T09:12:29.405Z,100483.21
2017-10-20T09:14:57.020Z,100484.30
2017-10-20T09:17:24.667Z,100488.23
2017-10-20T09:19:52.258Z,100475.13
2017-10-20T09:22:19.891Z,100481.68
2017-10-20T09:24:47.522Z,100485.42
2017-10-20T09:27:15.189Z,100488.12
2017-10-20T09:29:42.987Z,100485.83
2017-10-20T09:32:10.602Z,100480.30
2017-10-20T09:34:38.883Z,100494.97
2017-10-20T09:37:06.500Z,100494.21
2017-10-20T09:39:34.123Z,100502.83
2017-10-20T09:42:01.711Z,100502.56
2017-10-20T09:44:29.879Z,100499.01
2017-10-20T09:46:57.479Z,100503.72
2017-10-20T09:49:25.098Z,100507.46
2017-10-20T09:51:52.695Z,100504.80
2017-10-20T09:54:20.320Z,100502.13
2017-10-20T09:56:48.010Z,100503.36
2017-10-20T09:59:15.625Z,100509.59
2017-10-20T10:01:43.586Z,100514.64
2017-10-20T10:04:11.223Z,100519.75
2017-10-20T10:06:38.806Z,100519.86
2017-10-20T10:09:06.438Z,100527.84
2017-10-20T10:11:34.025Z,100526.13
2017-10-20T10:14:01.661Z,100529.23
2017-10-20T10:16:29.256Z,100535.06
2017-10-20T10:18:56.962Z,100543.44
2017-10-20T10:21:24.559Z,100543.20
2017-10-20T10:23:52.215Z,100558.34
2017-10-20T10:26:19.828Z,100549.33
2017-10-20T10:28:48.414Z,100564.06
2017-10-20T10:31:16.030Z,100561.39
2017-10-20T10:33:43.651Z,100564.03
2017-10-20T10:36:11.281Z,100558.77
2017-10-20T10:38:38.872Z,100564.66
2017-10-20T10:41:06.498Z,100563.75
2017-10-20T10:43:34.094Z,100557.22
2017-10-20T10:46:01.738Z,100564.31
2017-10-20T10:48:29.360Z,100555.59
2017-10-20T10:50:56.991Z,100561.98
2017-10-20T10:53:24.582Z,100565.81
2017-10-20T10:55:52.192Z,100562.09
2017-10-20T10:58:20.774Z,100560.52
2017-10-20T11:00:48.428Z,100578.57
2017-10-20T11:03:16.027Z,100583.37
2017-10-20T11:05:55.263Z,100567.55
2017-10-20T11:08:34.482Z,100567.34
2017-10-20T11:11:13.619Z,100568.80
2017-10-20T11:13:41.230Z,100569.79
2017-10-20T11:16:08.863Z,100573.70
2017-10-20T11:18:36.456Z,100579.45
2017-10-20T11:21:04.223Z,100576.30
2017-10-20T11:23:31.831Z,100572.64
2017-10-20T11:25:59.467Z,100570.41
2017-10-20T11:28:27.051Z,100580.94
2017-10-20T11:30:54.762Z,100584.42
2017-10-20T11:33:22.362Z,100586.77
2017-10-20T11:35:49.990Z,100596.09
2017-10-20T11:38:17.595Z,100583.92
2017-10-20T11:40:45.219Z,100583.33
2017-10-20T11:43:13.787Z,100584.02
2017-10-20T11:45:41.409Z,100576.59
2017-10-20T11:48:09.010Z,100575.81
2017-10-20T11:50:36.626Z,100585.22
2017-10-20T11:53:04.218Z,100590.81
2017-10-20T11:55:31.851Z,100582.33
2017-10-20T11:57:59.459Z,100592.50
2017-10-20T12:00:27.096Z,100591.56
2017-10-20T12:02:54.719Z,100583.93
2017-10-20T12:05:22.322Z,100578.05
2017-10-20T12:07:49.920Z,100596.55
2017-10-20T12:10:17.562Z,100599.43
2017-10-20T12:12:45.216Z,100600.38
2017-10-20T12:15:12.871Z,100613.42
2017-10-20T12:17:40.490Z,100598.34
2017-10-20T12:20:08.092Z,100591.47
2017-10-20T12:22:35.720Z,100582.73
2017-10-20T12:25:03.336Z,100594.47
2017-10-20T12:27:30.954Z,100605.63
2017-10-20T12:29:58.543Z,100594.80
2017-10-20T12:32:26.156Z,100606.46
2017-10-20T12:34:53.751Z,100599.31
2017-10-20T12:37:36.104Z,100605.70
2017-10-20T12:40:03.727Z,100607.82
2017-10-20T12:42:31.362Z,100599.41
2017-10-20T12:44:58.958Z,100600.29
2017-10-20T12:47:26.602Z,100617.55
2017-10-20T12:49:54.202Z,100614.13
2017-10-20T12:52:21.840Z,100602.82
2017-10-20T12:54:49.446Z,100595.47
2017-10-20T12:57:17.163Z,100609.86
2017-10-20T12:59:44.768Z,100609.45
2017-10-20T13:02:12.392Z,100612.46
2017-10-20T13:04:40.024Z,100605.49
2017-10-20T13:07:07.683Z,100617.71
2017-10-20T13:09:35.383Z,100615.18
2017-10-20T13:12:02.985Z,100622.59
2017-10-20T13:14:30.611Z,100621.09
2017-10-20T13:16:58.231Z,100627.70
2017-10-20T13:19:25.887Z,100625.05
2017-10-20T13:21:53.547Z,100634.67
2017-10-20T13:24:21.180Z,100627.56
2017-10-20T13:26:48.790Z,100632.98
2017-10-20T13:29:16.406Z,100635.53
2017-10-20T13:31:44.014Z,100643.33
2017-10-20T13:34:11.658Z,100643.56
2017-10-20T13:36:39.269Z,100644.46
2017-10-20T13:39:06.983Z,100645.62
2017-10-20T13:41:34.585Z,100640.94
2017-10-20T13:44:02.231Z,100650.87
2017-10-20T13:46:29.823Z,100645.77
2017-10-20T13:48:57.443Z,100646.86
2017-10-20T13:51:25.042Z,100646.66
2017-10-20T13:53:52.639Z,100651.14
2017-10-20T13:56:20.301Z,100651.36
2017-10-20T13:58:47.907Z,100647.45
2017-10-20T14:01:15.547Z,100654.17
2017-10-20T14:03:43.151Z,100653.44
2017-10-20T14:06:10.826Z,100643.84
2017-10-20T14:08:38.455Z,100649.11
2017-10-20T14:11:06.116Z,100652.23
2017-10-20T14:13:33.770Z,100652.34
2017-10-20T14:16:01.412Z,100652.50
2017-10-20T14:18:29.020Z,100660.37
2017-10-20T14:20:56.663Z,100657.53
2017-10-20T14:23:25.113Z,100661.20
2017-10-20T14:25:52.730Z,100659.79
2017-10-20T14:28:20.346Z,100653.16
2017-10-20T14:30:48.072Z,100659.89
2017-10-20T14:33:15.703Z,100657.70
2017-10-20T14:35:43.435Z,100664.58
2017-10-20T14:38:11.075Z,100658.38
2017-10-20T14:40:38.691Z,100666.86
2017-10-20T14:43:06.344Z,100663.36
2017-10-20T14:45:34.701Z,100662.62
2017-10-20T14:48:02.323Z,100671.64
2017-10-20T14:50:29.964Z,100673.35
2017-10-20T14:52:57.598Z,100667.22
2017-10-20T14:55:25.266Z,100670.34
2017-10-20T14:57:52.951Z,100678.45
2017-10-20T15:00:20.617Z,100685.42
2017-10-20T15:02:48.259Z,100682.18
2017-10-20T15:05:15.867Z,100682.23
2017-10-20T15:07:43.526Z,100685.80
2017-10-20T15:10:11.131Z,100685.63
2017-10-20T15:12:38.782Z,100694.21
2017-10-20T15:15:06.386Z,100692.65
2017-10-20T15:17:34.043Z,100689.69
2017-10-20T15:20:01.668Z,100691.70
2017-10-20T15:22:29.380Z,100699.18
2017-10-20T15:24:56.996Z,100695.91
2017-10-20T15:27:24.623Z,100700.64
2017-10-20T15:29:52.233Z,100706.74
2017-10-20T15:32:19.967Z,100710.25
2017-10-20T15:34:47.593Z,100711.52
2017-10-20T15:37:15.241Z,100708.91
2017-10-20T15:39:42.840Z,100714.83
2017-10-20T15:42:10.484Z,100712.46
2017-10-20T15:44:38.081Z,100714.47
2017-10-20T15:47:05.765Z,100719.38
2017-10-20T15:49:33.434Z,100720.13
2017-10-20T15:52:01.085Z,100723.82
2017-10-20T15:54:28.737Z,100723.14
2017-10-20T15:56:57.166Z,100728.27
2017-10-20T15:59:24.786Z,100738.56
2017-10-20T16:01:52.434Z,100741.87
2017-10-20T16:04:20.042Z,100739.93
2017-10-20T16:06:47.679Z,100730.09
2017-10-20T16:09:15.289Z,100749.17
2017-10-20T16:11:42.930Z,100742.23
2017-10-20T16:14:10.532Z,100753.91
2017-10-20T16:16:38.167Z,100750.20
2017-10-20T16:19:05.845Z,100769.05
2017-10-20T16:21:33.488Z,100770.36
2017-10-20T16:24:01.087Z,100780.56
2017-10-20T16:26:28.723Z,100778.56
2017-10-20T16:28:56.314Z,100772.15
2017-10-20T16:31:23.963Z,100787.98
2017-10-20T16:33:51.578Z,100773.49
2017-10-20T16:36:19.254Z,100776.31
2017-10-20T16:38:47.103Z,100766.59
2017-10-20T16:41:14.750Z,100771.13
2017-10-20T16:43:42.386Z,100787.52
2017-10-20T16:46:10.024Z,100782.34
2017-10-20T16:48:38.451Z,100788.98
2017-10-20T16:51:06.152Z,100794.27
2017-10-20T16:53:33.747Z,100799.90
2017-10-20T16:56:01.367Z,100798.22
2017-10-20T16:58:29.117Z,100803.50
2017-10-20T17:00:56.719Z,100805.95
2017-10-20T17:03:24.348Z,100813.00
2017-10-20T17:05:51.983Z,100811.88
2017-10-20T17:08:19.618Z,100822.83
2017-10-20T17:10:47.243Z,100817.38
2017-10-20T17:13:14.895Z,100817.23
2017-10-20T17:15:42.494Z,100822.22
2017-10-20T17:18:11.300Z,100826.91
2017-10-20T17:20:38.896Z,100817.64
2017-10-20T17:23:06.535Z,100821.88
2017-10-20T17:25:34.143Z,100826.40
2017-10-20T17:28:01.814Z,100823.22
2017-10-20T17:30:29.454Z,100820.94
2017-10-20T17:32:57.148Z,100826.04
2017-10-20T17:35:24.746Z,100822.52
2017-10-20T17:37:52.429Z,100826.04
2017-10-20T17:40:20.053Z,100829.16
2017-10-20T17:42:47.771Z,100829.71
2017-10-20T17:45:15.379Z,100827.98
2017-10-20T17:47:43.122Z,100831.01
2017-10-20T17:50:10.723Z,100831.80
2017-10-20T17:52:38.327Z,100835.85
2017-10-20T17:55:05.969Z,100835.80
2017-10-20T17:57:33.616Z,100844.45
2017-10-20T18:00:02.897Z,100847.89
2017-10-20T18:02:30.524Z,100846.78
2017-10-20T18:04:58.170Z,100854.20
2017-10-20T18:07:25.782Z,100853.64
2017-10-20T18:09:53.436Z,100851.65
2017-10-20T18:12:21.031Z,100862.59
2017-10-20T18:14:48.709Z,100860.66
2017-10-20T18:17:16.308Z,100860.22
2017-10-20T18:19:43.911Z,100864.36
2017-10-20T18:22:11.550Z,100858.75
2017-10-20T18:24:39.204Z,100878.71
2017-10-20T18:27:06.838Z,100864.83
2017-10-20T18:29:34.436Z,100870.93
2017-10-20T18:32:02.124Z,100873.69
2017-10-20T18:34:29.762Z,100873.81
2017-10-20T18:36:57.477Z,100875.13
2017-10-20T18:39:25.162Z,100886.08
2017-10-20T18:41:52.792Z,100887.28
2017-10-20T18:44:20.438Z,100891.19
2017-10-20T18:46:48.046Z,100884.37
2017-10-20T18:49:15.677Z,100887.42
2017-10-20T18:51:43.290Z,100888.30
2017-10-20T18:54:10.941Z,100892.62
2017-10-20T18:56:39.545Z,100889.92
2017-10-20T18:59:07.184Z,100888.42
2017-10-20T19:01:34.819Z,100882.91
2017-10-20T19:04:02.479Z,100880.47
2017-10-20T19:06:30.087Z,100884.67
2017-10-20T19:09:01.629Z,100886.10
2017-10-20T19:11:29.249Z,100885.28
2017-10-20T19:13:56.893Z,100887.05
2017-10-20T19:16:24.512Z,100882.17
2017-10-20T19:18:52.378Z,100886.55
2017-10-20T19:21:21.034Z,100899.23
2017-10-20T19:23:48.696Z,100895.97
2017-10-20T19:26:16.363Z,100899.11
2017-10-20T19:28:44.955Z,100901.48
2017-10-20T19:31:13.480Z,100907.50
2017-10-20T19:33:41.123Z,100902.22
2017-10-20T19:36:09.575Z,100903.83
2017-10-20T19:38:37.196Z,100898.22
2017-10-20T19:41:04.884Z,100903.20
2017-10-20T19:43:32.606Z,100928.05
2017-10-20T19:46:00.292Z,100906.38
2017-10-20T19:48:27.936Z,100905.68
2017-10-20T19:50:55.592Z,100912.86
2017-10-20T19:53:23.226Z,100916.14
2017-10-20T19:55:50.868Z,100915.20
2017-10-20T19:58:18.480Z,100918.60
2017-10-20T20:00:46.116Z,100919.16
2017-10-20T20:03:13.760Z,100924.72
2017-10-20T20:05:41.398Z,100927.59
2017-10-20T20:08:08.999Z,100931.22
2017-10-20T20:10:36.651Z,100932.61
2017-10-20T20:13:04.255Z,100933.70
2017-10-20T20:15:32.638Z,100931.11
2017-10-20T20:18:00.231Z,100936.94
2017-10-20T20:20:28.064Z,100940.31
2017-10-20T20:22:55.679Z,100935.88
2017-10-20T20:25:23.337Z,100939.39
2017-10-20T20:27:50.946Z,100939.27
2017-10-20T20:30:20.649Z,100940.12
2017-10-20T20:33:03.127Z,100944.91
2017-10-20T20:35:30.797Z,100951.13
2017-10-20T20:37:58.401Z,100943.44
2017-10-20T20:40:26.054Z,100945.07
2017-10-20T20:42:53.801Z,100945.30
2017-10-20T20:45:21.449Z,100935.27
2017-10-20T20:47:49.072Z,100936.51
2017-10-20T20:50:16.755Z,100928.33
2017-10-20T20:52:44.362Z,100929.58
2017-10-20T20:55:12.040Z,100929.90
2017-10-20T20:57:39.687Z,100924.27
2017-10-20T21:00:07.300Z,100926.95
2017-10-20T21:02:34.915Z,100930.58
2017-10-20T21:05:02.531Z,100916.83
2017-10-20T21:07:30.179Z,100918.58
2017-10-20T21:09:57.820Z,100921.55
2017-10-20T21:12:25.463Z,100922.48
2017-10-20T21:14:53.110Z,100917.77
2017-10-20T21:17:20.801Z,100915.77
2017-10-20T21:19:48.447Z,100913.22
2017-10-20T21:22:16.047Z,100914.42
2017-10-20T21:24:43.699Z,100915.07
2017-10-20T21:27:11.305Z,100914.96
2017-10-20T21:29:38.946Z,100917.11
2017-10-20T21:32:06.592Z,100914.58
2017-10-20T21:34:35.207Z,100915.16
2017-10-20T21:37:02.810Z,100912.50
2017-10-20T21:39:30.426Z,100916.81
2017-10-20T21:41:58.094Z,100912.05
2017-10-20T21:44:25.685Z,100912.28
2017-10-20T21:46:53.311Z,100917.57
2017-10-20T21:49:20.915Z,100911.91
2017-10-20T21:51:48.554Z,100906.38
2017-10-20T21:54:16.151Z,100909.92
2017-10-20T21:56:43.791Z,100913.56
2017-10-20T21:59:11.391Z,100909.58
2017-10-20T22:01:39.039Z,100903.94
2017-10-20T22:04:06.903Z,100907.69
2017-10-20T22:06:34.528Z,100911.03
2017-10-20T22:09:02.128Z,100911.16
2017-10-20T22:11:29.779Z,100908.77
2017-10-20T22:13:57.383Z,100917.41
2017-10-20T22:16:25.016Z,100915.95
2017-10-20T22:18:52.787Z,100915.88
2017-10-20T22:21:20.462Z,100915.05
2017-10-20T22:23:48.059Z,100916.94
2017-10-20T22:26:15.719Z,100920.28
2017-10-20T22:28:43.355Z,100925.42
2017-10-20T22:31:10.969Z,100923.95
2017-10-20T22:33:38.624Z,100925.80
2017-10-20T22:36:06.228Z,100924.73
2017-10-20T22:38:33.862Z,100915.61
2017-10-20T22:41:01.500Z,100905.95
2017-10-20T22:43:29.145Z,100908.75
2017-10-20T22:45:56.763Z,100906.11
2017-10-20T22:48:24.408Z,100909.73
2017-10-20T22:50:52.018Z,100912.56
2017-10-20T22:53:19.645Z,100910.66
2017-10-20T22:55:47.408Z,100912.80
2017-10-20T22:58:15.105Z,100909.70
2017-10-20T23:00:42.761Z,100913.61
2017-10-20T23:03:10.403Z,100908.12
2017-10-20T23:05:38.087Z,100908.80
2017-10-20T23:08:05.926Z,100903.41
2017-10-20T23:10:33.541Z,100905.15
2017-10-20T23:13:01.180Z,100906.77
2017-10-20T23:15:28.773Z,100901.53
2017-10-20T23:17:56.589Z,100912.28
2017-10-20T23:20:24.175Z,100909.32
2017-10-20T23:22:51.809Z,100914.33
2017-10-20T23:25:19.438Z,100911.66
2017-10-20T23:27:47.071Z,100910.59
2017-10-20T23:30:14.703Z,100909.48
2017-10-20T23:32:43.003Z,100905.56
2017-10-20T23:35:10.606Z,100903.27
2017-10-20T23:37:38.234Z,100892.64
2017-10-20T23:40:05.895Z,100893.99
2017-10-20T23:42:33.527Z,100897.77
2017-10-20T23:45:01.135Z,100900.19
2017-10-20T23:47:28.787Z,100897.63
2017-10-20T23:49:56.403Z,100898.97
2017-10-20T23:52:24.025Z,100898.56
2017-10-20T23:54:51.634Z,100896.70
2017-10-20T23:57:19.242Z,100896.01
2017-10-20T23:59:47.044Z,100894.16
